createdAt,value
2023-04-29T00:00:58.313Z,10.81
2023-04-29T00:04:03.630Z,10.75
2023-04-29T00:07:06.102Z,10.78
2023-04-29T00:10:08.779Z,10.89
2023-04-29T00:13:12.933Z,10.95
2023-04-29T00:16:15.145Z,10.79
2023-04-29T00:19:18.371Z,10.82
2023-04-29T00:22:22.700Z,10.73
2023-04-29T00:25:25.420Z,10.61
2023-04-29T00:28:27.708Z,10.63
2023-04-29T00:31:30.036Z,10.61
2023-04-29T00:34:32.373Z,10.63
2023-04-29T00:37:35.161Z,10.66
2023-04-29T00:40:37.637Z,10.67
2023-04-29T00:43:39.875Z,10.74
2023-04-29T00:46:42.613Z,10.72
2023-04-29T00:49:44.882Z,10.61
2023-04-29T00:52:48.114Z,10.67
2023-04-29T00:55:51.772Z,10.65
2023-04-29T00:58:54.127Z,10.61
2023-04-29T01:01:56.456Z,10.59
2023-04-29T01:04:58.703Z,10.57
2023-04-29T01:08:28.923Z,10.53
2023-04-29T01:11:37.955Z,10.63
2023-04-29T01:14:43.825Z,10.66
2023-04-29T01:17:57.595Z,10.63
2023-04-29T01:21:00.139Z,10.60
2023-04-29T01:24:02.432Z,10.68
2023-04-29T01:27:28.447Z,10.62
2023-04-29T01:30:42.635Z,10.64
2023-04-29T01:34:08.358Z,10.64
2023-04-29T01:37:17.523Z,10.56
2023-04-29T01:40:38.570Z,10.56
2023-04-29T01:43:41.210Z,10.62
2023-04-29T01:46:45.058Z,10.49
2023-04-29T01:49:47.446Z,10.50
2023-04-29T01:52:49.633Z,10.45
2023-04-29T01:55:51.801Z,10.45
2023-04-29T01:58:54.007Z,10.54
2023-04-29T02:01:58.756Z,10.56
2023-04-29T02:05:01.329Z,10.46
2023-04-29T02:08:03.914Z,10.42
2023-04-29T02:11:06.739Z,10.32
2023-04-29T02:14:08.938Z,10.33
2023-04-29T02:17:11.200Z,10.32
2023-04-29T02:20:13.469Z,10.30
2023-04-29T02:23:15.669Z,10.23
2023-04-29T02:26:18.037Z,10.13
2023-04-29T02:29:20.352Z,10.18
2023-04-29T02:32:22.536Z,10.22
2023-04-29T02:35:24.738Z,10.16
2023-04-29T02:38:26.982Z,10.20
2023-04-29T02:41:29.254Z,10.25
2023-04-29T02:44:31.482Z,10.23
2023-04-29T02:47:33.703Z,10.25
2023-04-29T02:50:35.903Z,10.18
2023-04-29T02:53:38.090Z,10.19
2023-04-29T02:56:40.358Z,10.16
2023-04-29T02:59:42.848Z,10.20
2023-04-29T03:02:45.173Z,10.13
2023-04-29T03:05:47.422Z,10.10
2023-04-29T03:08:50.609Z,10.13
2023-04-29T03:11:53.390Z,10.11
2023-04-29T03:14:55.639Z,10.06
2023-04-29T03:17:59.837Z,10.09
2023-04-29T03:21:04.796Z,10.08
2023-04-29T03:24:07.281Z,10.06
2023-04-29T03:27:09.550Z,10.08
2023-04-29T03:30:12.125Z,10.12
2023-04-29T03:33:14.328Z,10.12
2023-04-29T03:36:16.757Z,10.23
2023-04-29T03:39:18.919Z,10.27
2023-04-29T03:42:21.227Z,10.17
2023-04-29T03:45:23.957Z,10.31
2023-04-29T03:48:26.131Z,10.30
2023-04-29T03:51:28.401Z,10.30
2023-04-29T03:54:31.037Z,10.31
2023-04-29T03:57:33.229Z,10.26
2023-04-29T04:00:35.592Z,10.29
2023-04-29T04:03:38.146Z,10.27
2023-04-29T04:06:40.391Z,10.26
2023-04-29T04:09:42.608Z,10.27
2023-04-29T04:12:45.645Z,10.34
2023-04-29T04:15:51.791Z,10.40
2023-04-29T04:18:54.026Z,10.37
2023-04-29T04:21:56.296Z,10.34
2023-04-29T04:24:58.462Z,10.37
2023-04-29T04:28:00.766Z,10.40
2023-04-29T04:31:02.966Z,10.50
2023-04-29T04:34:05.186Z,10.49
2023-04-29T04:37:07.453Z,10.42
2023-04-29T04:40:11.381Z,10.40
2023-04-29T04:43:13.584Z,10.36
2023-04-29T04:46:16.938Z,10.31
2023-04-29T04:49:19.327Z,10.27
2023-04-29T04:52:22.161Z,10.17
2023-04-29T04:55:24.686Z,10.16
2023-04-29T04:58:26.915Z,10.14
2023-04-29T05:01:29.194Z,10.08
2023-04-29T05:04:31.597Z,10.11
2023-04-29T05:07:35.984Z,10.26
2023-04-29T05:10:38.263Z,10.36
2023-04-29T05:13:40.972Z,10.35
2023-04-29T05:16:44.982Z,10.43
2023-04-29T05:19:47.221Z,10.44
2023-04-29T05:22:49.380Z,10.48
2023-04-29T05:25:51.693Z,10.54
2023-04-29T05:28:54.918Z,10.50
2023-04-29T05:31:57.123Z,10.46
2023-04-29T05:34:59.365Z,10.55
2023-04-29T05:38:01.539Z,10.53
2023-04-29T05:41:04.012Z,10.56
2023-04-29T05:44:06.347Z,10.53
2023-04-29T05:47:08.614Z,10.62
2023-04-29T05:50:11.574Z,10.60
2023-04-29T05:53:13.787Z,10.71
2023-04-29T05:56:16.775Z,10.76
2023-04-29T05:59:18.970Z,10.90
2023-04-29T06:02:21.453Z,10.80
2023-04-29T06:05:24.063Z,10.75
2023-04-29T06:08:27.015Z,10.67
2023-04-29T06:11:29.268Z,10.88
2023-04-29T06:14:31.598Z,10.93
2023-04-29T06:17:33.846Z,10.84
2023-04-29T06:20:37.507Z,10.73
2023-04-29T06:23:39.902Z,10.78
2023-04-29T06:26:42.123Z,10.68
2023-04-29T06:29:44.364Z,10.81
2023-04-29T06:32:46.536Z,10.94
2023-04-29T06:35:48.788Z,10.91
2023-04-29T06:38:50.947Z,10.87
2023-04-29T06:41:53.239Z,10.67
2023-04-29T06:44:55.725Z,10.77
2023-04-29T06:47:58.060Z,10.70
2023-04-29T06:51:00.394Z,10.70
2023-04-29T06:54:02.729Z,10.77
2023-04-29T06:57:04.897Z,10.87
2023-04-29T07:00:07.796Z,10.76
2023-04-29T07:03:11.248Z,10.81
2023-04-29T07:06:13.537Z,10.90
2023-04-29T07:09:15.832Z,10.91
2023-04-29T07:12:18.149Z,10.86
2023-04-29T07:15:20.554Z,10.94
2023-04-29T07:18:23.039Z,10.87
2023-04-29T07:21:25.354Z,10.86
2023-04-29T07:24:27.577Z,10.85
2023-04-29T07:27:29.891Z,10.95
2023-04-29T07:30:32.106Z,11.07
2023-04-29T07:33:35.280Z,11.14
2023-04-29T07:36:37.532Z,11.24
2023-04-29T07:39:39.916Z,11.33
2023-04-29T07:42:42.159Z,11.32
2023-04-29T07:45:44.387Z,11.53
2023-04-29T07:48:46.676Z,11.59
2023-04-29T07:51:48.863Z,11.81
2023-04-29T07:54:51.282Z,11.90
2023-04-29T07:57:53.804Z,11.96
2023-04-29T08:00:56.044Z,11.85
2023-04-29T08:03:58.344Z,11.98
2023-04-29T08:07:02.727Z,11.97
2023-04-29T08:10:05.359Z,12.07
2023-04-29T08:13:08.328Z,12.01
2023-04-29T08:16:11.309Z,12.19
2023-04-29T08:19:13.551Z,12.20
2023-04-29T08:22:16.022Z,12.37
2023-04-29T08:25:18.302Z,12.33
2023-04-29T08:28:20.508Z,12.45
2023-04-29T08:31:22.782Z,12.72
2023-04-29T08:34:25.004Z,12.65
2023-04-29T08:37:27.297Z,12.87
2023-04-29T08:40:30.189Z,12.99
2023-04-29T08:43:35.412Z,13.13
2023-04-29T08:46:39.232Z,13.05
2023-04-29T08:49:41.717Z,13.01
2023-04-29T08:52:43.944Z,12.78
2023-04-29T08:55:47.521Z,12.85
2023-04-29T08:58:54.633Z,13.07
2023-04-29T09:01:57.848Z,13.03
2023-04-29T09:05:06.567Z,13.04
2023-04-29T09:08:09.240Z,13.14
2023-04-29T09:11:12.253Z,13.46
2023-04-29T09:14:15.319Z,13.41
2023-04-29T09:17:18.326Z,13.18
2023-04-29T09:20:20.779Z,13.31
2023-04-29T09:23:37.251Z,13.52
2023-04-29T09:26:43.522Z,13.78
2023-04-29T09:30:01.003Z,13.64
2023-04-29T09:33:08.572Z,13.90
2023-04-29T09:36:10.921Z,13.98
2023-04-29T09:39:21.156Z,14.03
2023-04-29T09:42:23.711Z,14.26
2023-04-29T09:45:52.509Z,14.49
2023-04-29T09:48:54.701Z,14.57
2023-04-29T09:51:58.468Z,15.03
2023-04-29T09:55:05.336Z,14.92
2023-04-29T09:58:07.544Z,14.78
2023-04-29T10:01:10.481Z,14.64
2023-04-29T10:04:14.038Z,14.42
2023-04-29T10:07:17.706Z,14.43
2023-04-29T10:10:21.798Z,14.57
2023-04-29T10:13:26.160Z,14.74
2023-04-29T10:16:30.246Z,14.92
2023-04-29T10:19:54.430Z,15.12
2023-04-29T10:22:57.051Z,15.26
2023-04-29T10:26:00.638Z,15.40
2023-04-29T10:29:04.036Z,15.62
2023-04-29T10:32:12.801Z,15.53
2023-04-29T10:35:16.632Z,15.56
2023-04-29T10:38:37.504Z,15.83
2023-04-29T10:41:47.720Z,15.96
2023-04-29T10:45:27.662Z,15.97
2023-04-29T10:48:29.972Z,15.89
2023-04-29T10:51:34.193Z,16.21
2023-04-29T10:54:36.399Z,16.18
2023-04-29T10:57:38.589Z,16.29
2023-04-29T11:00:40.797Z,16.37
2023-04-29T11:03:58.754Z,16.57
2023-04-29T11:07:02.972Z,16.88
2023-04-29T11:10:05.549Z,16.84
2023-04-29T11:13:27.218Z,17.13
2023-04-29T11:16:29.493Z,17.58
2023-04-29T11:19:36.853Z,17.50
2023-04-29T11:22:39.167Z,17.62
2023-04-29T11:25:41.510Z,17.20
2023-04-29T11:28:43.856Z,17.20
2023-04-29T11:31:46.970Z,17.05
2023-04-29T11:34:49.608Z,16.56
2023-04-29T11:37:53.175Z,16.36
2023-04-29T11:40:56.350Z,16.54
2023-04-29T11:43:59.723Z,16.47
2023-04-29T11:47:03.417Z,16.46
2023-04-29T11:50:07.923Z,16.63
2023-04-29T11:53:10.334Z,16.67
2023-04-29T11:56:12.674Z,16.81
2023-04-29T11:59:14.927Z,17.39
2023-04-29T12:02:17.141Z,17.90
2023-04-29T12:05:19.900Z,18.51
2023-04-29T12:08:23.333Z,19.03
2023-04-29T12:11:26.762Z,19.09
2023-04-29T12:14:28.962Z,19.46
2023-04-29T12:17:31.262Z,19.51
2023-04-29T12:20:33.571Z,19.03
2023-04-29T12:23:36.188Z,18.95
2023-04-29T12:26:40.252Z,18.92
2023-04-29T12:29:42.538Z,18.61
2023-04-29T12:32:45.444Z,18.88
2023-04-29T12:36:00.144Z,18.69
2023-04-29T12:39:02.374Z,18.74
2023-04-29T12:42:04.559Z,18.45
2023-04-29T12:45:07.266Z,18.12
2023-04-29T12:48:18.449Z,18.34
2023-04-29T12:51:27.494Z,18.51
2023-04-29T12:54:30.665Z,18.27
2023-04-29T12:57:32.873Z,17.43
2023-04-29T13:00:37.396Z,17.70
2023-04-29T13:03:40.196Z,17.97
2023-04-29T13:06:42.580Z,18.16
2023-04-29T13:09:45.168Z,18.00
2023-04-29T13:12:47.851Z,18.30
2023-04-29T13:15:50.040Z,18.28
2023-04-29T13:19:08.212Z,18.84
2023-04-29T13:22:14.886Z,19.44
2023-04-29T13:25:17.366Z,19.48
2023-04-29T13:28:19.645Z,19.14
2023-04-29T13:31:21.877Z,18.11
2023-04-29T13:34:24.304Z,18.36
2023-04-29T13:37:26.649Z,18.31
2023-04-29T13:40:29.123Z,18.59
2023-04-29T13:43:37.779Z,18.35
2023-04-29T13:46:42.514Z,18.39
2023-04-29T13:50:19.720Z,18.35
2023-04-29T13:53:30.450Z,18.43
2023-04-29T13:57:18.510Z,18.12
2023-04-29T13:59:53.379Z,17.97
2023-04-29T14:06:01.226Z,17.25
2023-04-29T14:09:04.374Z,17.44
2023-04-29T14:12:06.710Z,17.52
2023-04-29T14:15:09.276Z,17.46
2023-04-29T14:18:12.166Z,17.37
2023-04-29T14:21:14.476Z,16.95
2023-04-29T14:24:16.746Z,16.86
2023-04-29T14:27:18.950Z,16.60
2023-04-29T14:30:21.636Z,16.59
2023-04-29T14:33:24.029Z,16.69
2023-04-29T14:36:29.377Z,16.82
2023-04-29T14:39:31.608Z,17.17
2023-04-29T14:42:34.317Z,17.22
2023-04-29T14:45:37.695Z,17.19
2023-04-29T14:48:39.926Z,17.24
2023-04-29T14:51:42.098Z,17.18
2023-04-29T14:54:44.732Z,17.15
2023-04-29T14:57:48.730Z,17.00
2023-04-29T15:00:51.709Z,17.16
2023-04-29T15:03:54.736Z,16.75
2023-04-29T15:06:57.914Z,16.71
2023-04-29T15:10:00.188Z,16.88
2023-04-29T15:13:02.698Z,16.97
2023-04-29T15:16:06.469Z,16.86
2023-04-29T15:19:08.720Z,16.80
2023-04-29T15:22:10.992Z,16.70
2023-04-29T15:25:13.273Z,16.82
2023-04-29T15:28:15.652Z,16.70
2023-04-29T15:31:17.926Z,16.66
2023-04-29T15:34:20.124Z,16.64
2023-04-29T15:37:23.254Z,16.74
2023-04-29T15:40:26.308Z,16.94
2023-04-29T15:43:28.941Z,16.75
2023-04-29T15:46:31.757Z,16.78
2023-04-29T15:49:34.186Z,16.94
2023-04-29T15:52:37.611Z,16.89
2023-04-29T15:55:39.835Z,16.63
2023-04-29T15:58:42.074Z,16.45
2023-04-29T16:01:44.370Z,16.65
2023-04-29T16:04:46.638Z,16.46
2023-04-29T16:07:48.969Z,16.20
2023-04-29T16:10:51.239Z,16.39
2023-04-29T16:13:53.438Z,16.38
2023-04-29T16:16:56.013Z,16.43
2023-04-29T16:19:58.386Z,16.21
2023-04-29T16:23:00.671Z,16.20
2023-04-29T16:26:03.041Z,16.38
2023-04-29T16:29:05.597Z,16.19
2023-04-29T16:32:07.837Z,15.90
2023-04-29T16:35:10.605Z,16.18
2023-04-29T16:38:12.971Z,16.08
2023-04-29T16:41:15.391Z,15.94
2023-04-29T16:44:17.640Z,15.73
2023-04-29T16:47:20.362Z,15.80
2023-04-29T16:50:22.700Z,15.69
2023-04-29T16:53:25.198Z,15.54
2023-04-29T16:56:27.648Z,15.55
2023-04-29T16:59:29.862Z,15.53
2023-04-29T17:02:32.119Z,15.60
2023-04-29T17:05:34.466Z,15.55
2023-04-29T17:08:36.714Z,15.66
2023-04-29T17:11:38.971Z,15.56
2023-04-29T17:14:41.220Z,15.35
2023-04-29T17:17:43.493Z,15.44
2023-04-29T17:20:46.756Z,15.34
2023-04-29T17:23:50.182Z,15.56
2023-04-29T17:26:52.406Z,15.35
2023-04-29T17:29:54.929Z,15.24
2023-04-29T17:32:57.722Z,15.29
2023-04-29T17:36:01.439Z,15.18
2023-04-29T17:39:03.821Z,15.15
2023-04-29T17:42:06.743Z,15.04
2023-04-29T17:45:09.798Z,14.91
2023-04-29T17:48:18.467Z,14.76
2023-04-29T17:51:20.671Z,14.64
2023-04-29T17:54:22.863Z,14.55
2023-04-29T17:57:25.573Z,14.61
2023-04-29T18:00:27.821Z,14.60
2023-04-29T18:03:30.938Z,14.50
2023-04-29T18:06:33.408Z,14.33
2023-04-29T18:09:36.058Z,14.15
2023-04-29T18:12:38.209Z,14.16
2023-04-29T18:15:40.375Z,13.83
2023-04-29T18:18:43.229Z,13.40
2023-04-29T18:21:45.739Z,13.21
2023-04-29T18:24:48.551Z,12.85
2023-04-29T18:27:52.670Z,12.75
2023-04-29T18:30:57.112Z,12.64
2023-04-29T18:33:59.324Z,12.56
2023-04-29T18:37:01.759Z,12.31
2023-04-29T18:40:05.640Z,12.36
2023-04-29T18:43:08.901Z,12.29
2023-04-29T18:46:11.212Z,12.28
2023-04-29T18:49:17.014Z,12.38
2023-04-29T18:52:19.567Z,12.42
2023-04-29T18:55:22.261Z,12.40
2023-04-29T18:58:26.825Z,12.66
2023-04-29T19:01:29.097Z,12.37
2023-04-29T19:04:32.065Z,12.10
2023-04-29T19:07:34.459Z,11.93
2023-04-29T19:10:36.745Z,11.96
2023-04-29T19:13:38.951Z,11.91
2023-04-29T19:16:41.650Z,11.87
2023-04-29T19:19:43.905Z,11.69
2023-04-29T19:22:47.661Z,11.62
2023-04-29T19:25:50.242Z,11.52
2023-04-29T19:28:52.726Z,11.37
2023-04-29T19:31:55.413Z,11.42
2023-04-29T19:34:57.797Z,11.38
2023-04-29T19:38:00.030Z,11.44
2023-04-29T19:41:02.644Z,11.56
2023-04-29T19:44:05.417Z,11.51
2023-04-29T19:47:07.821Z,11.51
2023-04-29T19:50:10.400Z,11.59
2023-04-29T19:53:13.139Z,11.57
2023-04-29T19:56:16.316Z,11.54
2023-04-29T19:59:18.479Z,11.53
2023-04-29T20:02:20.737Z,11.58
2023-04-29T20:05:23.123Z,11.62
2023-04-29T20:08:26.703Z,11.63
2023-04-29T20:11:29.142Z,11.67
2023-04-29T20:14:32.830Z,11.56
2023-04-29T20:17:35.565Z,11.53
2023-04-29T20:20:38.073Z,11.36
2023-04-29T20:23:40.276Z,11.37
2023-04-29T20:26:42.532Z,11.44
2023-04-29T20:29:44.966Z,11.52
2023-04-29T20:32:47.208Z,11.51
2023-04-29T20:35:49.481Z,11.50
2023-04-29T20:38:52.299Z,11.65
2023-04-29T20:41:56.997Z,11.52
2023-04-29T20:44:59.830Z,11.36
2023-04-29T20:48:02.012Z,11.42
2023-04-29T20:51:04.259Z,11.50
2023-04-29T20:54:06.801Z,11.51
2023-04-29T20:57:09.025Z,11.55
2023-04-29T21:00:12.062Z,11.65
2023-04-29T21:03:14.360Z,11.79
2023-04-29T21:06:18.037Z,11.92
2023-04-29T21:09:20.577Z,11.90
2023-04-29T21:12:24.823Z,11.83
2023-04-29T21:15:29.558Z,11.84
2023-04-29T21:18:31.797Z,12.01
2023-04-29T21:21:33.972Z,11.97
2023-04-29T21:24:36.151Z,11.97
2023-04-29T21:27:38.341Z,11.95
2023-04-29T21:30:40.949Z,12.00
2023-04-29T21:33:44.344Z,12.15
2023-04-29T21:36:46.606Z,12.11
2023-04-29T21:39:48.771Z,12.03
2023-04-29T21:42:51.189Z,12.03
2023-04-29T21:45:54.624Z,12.04
2023-04-29T21:48:59.759Z,11.87
2023-04-29T21:52:02.170Z,11.76
2023-04-29T21:55:06.402Z,11.84
2023-04-29T21:58:08.667Z,11.88
2023-04-29T22:01:27.051Z,11.91
2023-04-29T22:04:29.771Z,12.04
2023-04-29T22:07:32.030Z,12.13
2023-04-29T22:10:34.243Z,12.13
2023-04-29T22:13:36.585Z,11.92
2023-04-29T22:16:38.869Z,12.03
2023-04-29T22:19:41.321Z,12.12
2023-04-29T22:22:43.577Z,12.11
2023-04-29T22:25:45.787Z,12.07
2023-04-29T22:28:48.188Z,12.03
2023-04-29T22:31:50.770Z,11.94
2023-04-29T22:34:53.048Z,11.87
2023-04-29T22:37:55.271Z,11.73
2023-04-29T22:40:57.494Z,11.80
2023-04-29T22:44:00.057Z,11.97
2023-04-29T22:47:02.456Z,11.96
2023-04-29T22:50:05.167Z,11.81
2023-04-29T22:53:07.403Z,11.80
2023-04-29T22:56:09.668Z,11.80
2023-04-29T22:59:11.864Z,11.97
2023-04-29T23:02:14.071Z,12.09
2023-04-29T23:05:16.681Z,12.01
2023-04-29T23:08:18.986Z,11.81
2023-04-29T23:11:21.960Z,11.77
2023-04-29T23:14:24.191Z,11.95
2023-04-29T23:17:26.461Z,11.95
2023-04-29T23:20:28.636Z,12.01
2023-04-29T23:23:30.870Z,12.03
2023-04-29T23:26:33.062Z,11.87
2023-04-29T23:29:35.263Z,11.88
2023-04-29T23:32:37.471Z,12.00
2023-04-29T23:35:39.795Z,11.99
2023-04-29T23:38:42.036Z,11.92
2023-04-29T23:41:44.228Z,11.85
2023-04-29T23:44:46.404Z,11.77
2023-04-29T23:47:48.715Z,11.81
2023-04-29T23:50:50.901Z,11.98
2023-04-29T23:53:53.146Z,11.98
2023-04-29T23:56:55.326Z,11.94
2023-04-29T23:59:57.572Z,11.71
